Time;durP1;ratioP1;P1;durP2;ratioP2;P2;SDS_P1;SDS_P2;PMS_P1;PMS_P2;Temp;Humidity;BMP_temperature;BMP_pressure;BME280_temperature;BME280_humidity;BME280_pressure;Samples;Min_cycle;Max_cycle;Signal;HPM_P1;HPM_P2
2023/09/27 00:00:58;;;;;;;3.03;1.98;;;13.80;99.90;;;;;;5047381;28;20080;-79
2023/09/27 00:03:25;;;;;;;4.22;2.00;;;13.70;99.90;;;;;;5055059;28;20052;-79
2023/09/27 00:05:51;;;;;;;4.18;1.70;;;13.70;99.90;;;;;;5051150;28;20080;-79
2023/09/27 00:08:19;;;;;;;4.05;1.90;;;13.70;99.90;;;;;;5048652;28;20049;-81
2023/09/27 00:10:46;;;;;;;3.78;1.88;;;13.60;99.90;;;;;;5046373;28;20648;-79
2023/09/27 00:13:13;;;;;;;3.70;2.13;;;13.60;99.90;;;;;;5042660;28;20041;-79
2023/09/27 00:15:40;;;;;;;4.35;1.92;;;13.60;99.90;;;;;;5050086;28;20098;-79
2023/09/27 00:18:09;;;;;;;4.15;2.17;;;13.50;99.90;;;;;;5053992;28;20408;-79
2023/09/27 00:20:36;;;;;;;3.08;1.90;;;13.50;99.90;;;;;;5044511;28;20128;-79
2023/09/27 00:23:03;;;;;;;3.15;1.77;;;13.50;99.90;;;;;;5029505;28;20045;-79
2023/09/27 00:25:30;;;;;;;4.60;1.90;;;13.50;99.90;;;;;;5041160;28;20096;-80
2023/09/27 00:27:57;;;;;;;3.10;2.00;;;13.40;99.90;;;;;;5039167;28;20056;-79
2023/09/27 00:30:23;;;;;;;4.20;1.95;;;13.40;99.90;;;;;;5046177;28;20064;-80
2023/09/27 00:32:52;;;;;;;4.10;2.00;;;13.40;99.90;;;;;;5051957;28;20060;-80
2023/09/27 00:35:21;;;;;;;3.08;1.98;;;13.40;99.90;;;;;;5044175;28;20440;-79
2023/09/27 00:37:50;;;;;;;6.03;2.10;;;13.30;99.90;;;;;;5047123;28;20086;-79
2023/09/27 00:40:21;;;;;;;7.72;2.10;;;13.30;99.90;;;;;;5042680;28;20072;-79
2023/09/27 00:42:47;;;;;;;4.18;1.98;;;13.30;99.90;;;;;;5043506;28;20468;-79
2023/09/27 00:45:17;;;;;;;4.47;2.08;;;13.30;99.90;;;;;;5050025;28;20099;-79
2023/09/27 00:47:49;;;;;;;5.45;1.90;;;13.30;99.90;;;;;;5049781;28;20052;-79
2023/09/27 00:50:17;;;;;;;4.20;2.40;;;13.20;99.90;;;;;;5049660;28;20508;-80
2023/09/27 00:52:46;;;;;;;3.28;1.85;;;13.20;99.90;;;;;;5051114;28;20127;-80
2023/09/27 00:55:16;;;;;;;6.80;2.10;;;13.20;99.90;;;;;;5047873;28;20052;-79
2023/09/27 00:57:44;;;;;;;;;;;13.20;99.90;;;;;;5050803;28;20052;-80
2023/09/27 01:00:11;;;;;;;3.25;2.00;;;13.20;99.90;;;;;;5059623;28;19982;-79
2023/09/27 01:02:39;;;;;;;4.22;2.50;;;13.20;99.90;;;;;;5055236;28;20045;-79
2023/09/27 01:05:10;;;;;;;4.55;2.15;;;13.10;99.90;;;;;;5051914;28;20128;-79
2023/09/27 01:07:41;;;;;;;4.40;2.03;;;13.10;99.90;;;;;;5049565;28;20071;-79
2023/09/27 01:10:09;;;;;;;5.47;2.30;;;13.00;99.90;;;;;;5043391;28;20098;-79
2023/09/27 01:12:37;;;;;;;3.97;1.80;;;13.00;99.90;;;;;;5047188;28;20056;-79
2023/09/27 01:15:06;;;;;;;3.25;1.98;;;13.00;99.90;;;;;;5056941;28;20052;-79
2023/09/27 01:17:33;;;;;;;2.20;2.00;;;13.00;99.90;;;;;;5052465;28;20561;-80
2023/09/27 01:20:00;;;;;;;3.25;2.08;;;13.00;99.90;;;;;;5049646;28;20493;-79
2023/09/27 01:22:26;;;;;;;3.53;2.35;;;13.00;99.90;;;;;;5047550;28;20044;-80
2023/09/27 01:24:54;;;;;;;4.80;2.25;;;12.90;99.90;;;;;;5048116;28;20501;-79
2023/09/27 01:27:22;;;;;;;5.53;2.50;;;12.90;99.90;;;;;;5043882;28;20041;-79
2023/09/27 01:29:49;;;;;;;5.47;2.08;;;12.90;99.90;;;;;;5055049;28;20052;-79
2023/09/27 01:32:17;;;;;;;5.32;2.20;;;12.90;99.90;;;;;;5052291;28;20081;-79
2023/09/27 01:34:44;;;;;;;6.28;2.33;;;12.80;99.90;;;;;;5045404;28;20661;-79
2023/09/27 01:37:11;;;;;;;4.38;2.05;;;12.80;99.90;;;;;;5045601;28;20543;-80
2023/09/27 01:39:38;;;;;;;4.13;1.83;;;12.80;99.90;;;;;;5046085;28;20267;-79
2023/09/27 01:42:04;;;;;;;2.90;1.70;;;12.80;99.90;;;;;;5048103;28;20096;-79
2023/09/27 01:44:31;;;;;;;3.97;1.80;;;12.80;99.90;;;;;;5051359;28;20049;-79
2023/09/27 01:46:58;;;;;;;3.88;2.22;;;12.70;99.90;;;;;;5052682;28;20117;-79
2023/09/27 01:49:25;;;;;;;2.80;1.77;;;12.70;99.90;;;;;;5046388;28;20053;-81
2023/09/27 01:51:52;;;;;;;2.85;1.92;;;12.70;99.90;;;;;;5044804;28;20045;-79
2023/09/27 01:54:19;;;;;;;3.65;1.98;;;12.60;99.90;;;;;;5053445;28;20042;-79
2023/09/27 01:56:46;;;;;;;3.72;1.75;;;12.60;99.90;;;;;;5054979;28;20489;-80
2023/09/27 01:59:12;;;;;;;3.17;1.92;;;12.60;99.90;;;;;;5049302;28;20037;-79
2023/09/27 02:01:39;;;;;;;4.65;1.98;;;12.60;99.90;;;;;;5052120;28;20045;-80
2023/09/27 02:04:06;;;;;;;5.28;2.17;;;12.60;99.90;;;;;;5031756;28;20049;-79
2023/09/27 02:06:33;;;;;;;3.20;2.00;;;12.60;99.90;;;;;;5045345;28;20044;-79
2023/09/27 02:09:00;;;;;;;3.85;1.98;;;12.50;99.90;;;;;;5048583;28;20060;-80
2023/09/27 02:11:26;;;;;;;5.43;1.80;;;12.60;99.90;;;;;;5041270;28;20135;-79
2023/09/27 02:13:53;;;;;;;4.63;2.17;;;12.50;99.90;;;;;;5051220;28;20041;-79
2023/09/27 02:16:20;;;;;;;3.10;2.00;;;12.50;99.90;;;;;;5051078;28;20411;-79
2023/09/27 02:18:47;;;;;;;3.05;1.75;;;12.50;99.90;;;;;;5046753;28;20045;-79
2023/09/27 02:21:14;;;;;;;3.80;2.20;;;12.40;99.90;;;;;;5043698;28;20099;-79
2023/09/27 02:23:41;;;;;;;5.18;2.30;;;12.40;99.90;;;;;;5048339;28;20037;-80
2023/09/27 02:26:09;;;;;;;3.80;2.00;;;12.40;99.90;;;;;;5057579;28;20488;-79
2023/09/27 02:28:36;;;;;;;5.05;2.38;;;12.40;99.90;;;;;;5048703;28;20049;-79
2023/09/27 02:31:08;;;;;;;3.28;1.80;;;12.40;99.90;;;;;;5056355;28;20053;-79
2023/09/27 02:33:37;;;;;;;5.55;2.70;;;12.40;99.90;;;;;;5050696;28;20087;-79
2023/09/27 02:36:04;;;;;;;4.07;2.40;;;12.30;99.90;;;;;;5042038;28;20049;-79
2023/09/27 02:38:33;;;;;;;4.05;2.40;;;12.30;99.90;;;;;;5031785;28;20041;-79
2023/09/27 02:40:59;;;;;;;5.65;2.75;;;12.30;99.90;;;;;;5054370;28;20518;-79
2023/09/27 02:43:26;;;;;;;4.13;2.47;;;12.30;99.90;;;;;;5048651;28;20051;-79
2023/09/27 02:45:53;;;;;;;3.75;2.03;;;12.30;99.90;;;;;;5028244;28;20130;-79
2023/09/27 02:48:20;;;;;;;3.15;2.38;;;12.30;99.90;;;;;;5048067;28;20056;-79
2023/09/27 02:50:49;;;;;;;5.30;2.03;;;12.20;99.90;;;;;;5041193;28;20144;-79
2023/09/27 02:53:16;;;;;;;3.38;2.58;;;12.20;99.90;;;;;;5055685;28;20054;-79
2023/09/27 02:55:43;;;;;;;3.55;2.25;;;12.20;99.90;;;;;;5049912;28;20079;-79
2023/09/27 02:58:10;;;;;;;3.30;1.92;;;12.20;99.90;;;;;;5052077;28;20049;-80
2023/09/27 03:00:36;;;;;;;3.40;2.22;;;12.20;99.90;;;;;;5045971;28;20107;-80
2023/09/27 03:03:03;;;;;;;4.07;2.15;;;12.20;99.90;;;;;;5050033;28;20124;-79
2023/09/27 03:05:35;;;;;;;3.70;1.92;;;12.20;99.90;;;;;;5039065;28;20045;-79
2023/09/27 03:08:03;;;;;;;3.65;2.33;;;12.20;99.90;;;;;;5052124;28;20098;-80
2023/09/27 03:10:31;;;;;;;4.93;2.58;;;12.20;99.90;;;;;;5048660;28;20048;-79
2023/09/27 03:12:58;;;;;;;6.68;2.20;;;12.10;99.90;;;;;;5038744;28;20051;-79
2023/09/27 03:15:25;;;;;;;3.50;1.88;;;12.20;99.90;;;;;;5044299;28;20514;-79
2023/09/27 03:17:52;;;;;;;4.43;2.20;;;12.10;99.90;;;;;;5035066;28;20045;-79
2023/09/27 03:20:19;;;;;;;3.50;2.47;;;12.10;99.90;;;;;;5039214;28;20045;-79
2023/09/27 03:22:47;;;;;;;5.43;2.30;;;12.10;99.90;;;;;;5052359;28;20132;-79
2023/09/27 03:25:16;;;;;;;4.43;2.28;;;12.10;99.90;;;;;;5052068;28;20060;-79
2023/09/27 03:27:43;;;;;;;4.72;2.15;;;12.00;99.90;;;;;;5044022;28;20053;-79
2023/09/27 03:30:10;;;;;;;3.20;2.22;;;12.00;99.90;;;;;;5028489;28;20559;-79
2023/09/27 03:32:37;;;;;;;3.45;2.30;;;12.00;99.90;;;;;;5029809;28;20129;-79
2023/09/27 03:35:06;;;;;;;3.78;2.22;;;12.00;99.90;;;;;;5040753;28;20050;-79
2023/09/27 03:37:34;;;;;;;5.35;2.00;;;12.00;99.90;;;;;;5050687;28;20572;-79
2023/09/27 03:40:03;;;;;;;3.47;2.20;;;11.90;99.90;;;;;;5033110;28;20051;-79
2023/09/27 03:42:30;;;;;;;2.35;1.88;;;11.90;99.90;;;;;;5048181;28;20493;-79
2023/09/27 03:44:56;;;;;;;5.45;2.13;;;11.90;99.90;;;;;;5043267;28;20057;-79
2023/09/27 03:47:23;;;;;;;7.65;2.28;;;11.90;99.90;;;;;;5049582;28;20055;-79
2023/09/27 03:49:50;;;;;;;4.50;2.30;;;11.90;99.90;;;;;;5047686;28;20130;-79
2023/09/27 03:52:17;;;;;;;3.28;2.00;;;11.90;99.90;;;;;;5056010;28;20408;-79
2023/09/27 03:54:44;;;;;;;5.55;2.67;;;11.80;99.90;;;;;;5048465;28;20520;-79
2023/09/27 03:57:11;;;;;;;3.78;2.20;;;11.80;99.90;;;;;;5050964;28;20050;-79
2023/09/27 03:59:38;;;;;;;3.78;2.28;;;11.80;99.90;;;;;;5041828;28;20037;-79
2023/09/27 04:02:04;;;;;;;4.30;2.42;;;11.80;99.90;;;;;;5048908;28;20057;-79
2023/09/27 04:04:31;;;;;;;4.82;2.30;;;11.80;99.90;;;;;;5043137;28;20500;-79
2023/09/27 04:06:58;;;;;;;3.33;2.28;;;11.70;99.90;;;;;;5050324;28;20057;-79
2023/09/27 04:09:25;;;;;;;3.67;2.10;;;11.70;99.90;;;;;;5046780;28;20053;-79
2023/09/27 04:11:51;;;;;;;4.90;2.53;;;11.70;99.90;;;;;;5046631;28;20053;-80
2023/09/27 04:14:18;;;;;;;3.97;2.05;;;11.70;99.90;;;;;;5040348;28;20478;-79
2023/09/27 04:16:45;;;;;;;4.18;2.58;;;11.70;99.90;;;;;;5045313;28;20081;-79
2023/09/27 04:19:11;;;;;;;5.22;2.50;;;11.70;99.90;;;;;;5046115;28;20648;-79
2023/09/27 04:21:38;;;;;;;5.22;2.88;;;11.70;99.90;;;;;;5051737;28;20041;-79
2023/09/27 04:24:06;;;;;;;2.75;2.20;;;11.70;99.90;;;;;;5050561;28;20128;-79
2023/09/27 04:26:33;;;;;;;6.18;2.13;;;11.60;99.90;;;;;;5040735;28;20041;-78
2023/09/27 04:29:00;;;;;;;4.35;2.20;;;11.60;99.90;;;;;;5044248;28;20053;-79
2023/09/27 04:31:27;;;;;;;5.78;2.90;;;11.60;99.90;;;;;;5051459;28;20095;-79
2023/09/27 04:33:54;;;;;;;8.82;4.15;;;11.60;99.90;;;;;;5052911;28;20103;-79
2023/09/27 04:36:21;;;;;;;3.95;2.33;;;11.60;99.90;;;;;;5037979;28;20415;-79
2023/09/27 04:38:49;;;;;;;3.67;2.50;;;11.60;99.90;;;;;;5048448;28;20045;-79
2023/09/27 04:41:17;;;;;;;3.88;2.22;;;11.60;99.90;;;;;;5055491;28;20421;-79
2023/09/27 04:43:44;;;;;;;5.78;2.75;;;11.60;99.90;;;;;;5044598;28;20053;-79
2023/09/27 04:46:13;;;;;;;5.60;2.97;;;11.50;99.90;;;;;;5054217;28;20816;-79
2023/09/27 04:48:40;;;;;;;5.40;2.83;;;11.50;99.90;;;;;;5050764;28;20056;-79
2023/09/27 04:51:07;;;;;;;3.58;2.58;;;11.50;99.90;;;;;;5055931;28;20107;-79
2023/09/27 04:53:37;;;;;;;7.28;2.63;;;11.50;99.90;;;;;;5049043;28;20045;-79
2023/09/27 04:56:07;;;;;;;5.43;2.78;;;11.50;99.90;;;;;;5052931;28;20068;-79
2023/09/27 04:58:34;;;;;;;4.43;2.75;;;11.50;99.90;;;;;;5049307;28;20459;-79
2023/09/27 05:01:09;;;;;;;4.07;2.22;;;11.50;99.90;;;;;;5052310;28;20083;-79
2023/09/27 05:03:37;;;;;;;4.20;2.47;;;11.40;99.90;;;;;;5052896;28;20504;-79
2023/09/27 05:06:04;;;;;;;5.63;2.72;;;11.40;99.90;;;;;;5051793;28;20068;-79
2023/09/27 05:08:31;;;;;;;5.63;2.60;;;11.40;99.90;;;;;;5046101;28;20049;-79
2023/09/27 05:10:58;;;;;;;3.60;2.28;;;11.40;99.90;;;;;;5039656;28;20133;-79
2023/09/27 05:13:25;;;;;;;3.80;2.75;;;11.40;99.90;;;;;;5042821;28;20100;-79
2023/09/27 05:15:52;;;;;;;4.35;2.30;;;11.40;99.90;;;;;;5050688;28;20053;-79
2023/09/27 05:18:20;;;;;;;3.70;2.50;;;11.40;99.90;;;;;;5054141;28;20080;-79
2023/09/27 05:20:46;;;;;;;4.32;2.65;;;11.30;99.90;;;;;;5051933;28;20505;-79
2023/09/27 05:23:13;;;;;;;9.38;2.78;;;11.30;99.90;;;;;;5031006;28;20045;-79
2023/09/27 05:25:41;;;;;;;9.00;2.83;;;11.40;99.90;;;;;;5048700;28;20394;-79
2023/09/27 05:28:09;;;;;;;4.90;2.80;;;11.30;99.90;;;;;;5042163;28;20049;-79
2023/09/27 05:30:36;;;;;;;8.25;3.15;;;11.30;99.90;;;;;;5051433;28;20079;-79
2023/09/27 05:33:06;;;;;;;7.47;4.18;;;11.30;99.90;;;;;;5051153;28;20103;-79
2023/09/27 05:35:32;;;;;;;7.85;2.97;;;11.30;99.90;;;;;;5048625;28;20040;-79
2023/09/27 05:38:00;;;;;;;6.03;3.00;;;11.30;99.90;;;;;;5046777;28;20049;-79
2023/09/27 05:40:27;;;;;;;4.07;2.63;;;11.30;99.90;;;;;;5051348;28;20139;-79
2023/09/27 05:42:53;;;;;;;4.28;2.90;;;11.30;99.90;;;;;;5044176;28;20041;-79
2023/09/27 05:45:20;;;;;;;8.40;3.72;;;11.30;99.90;;;;;;5059471;28;20471;-80
2023/09/27 05:47:47;;;;;;;6.22;3.28;;;11.30;99.90;;;;;;5052072;28;20049;-79
2023/09/27 05:50:14;;;;;;;5.15;3.13;;;11.30;99.90;;;;;;5054299;28;20057;-79
2023/09/27 05:52:46;;;;;;;8.07;3.17;;;11.30;99.90;;;;;;5044388;28;20041;-79
2023/09/27 05:55:15;;;;;;;3.88;2.75;;;11.30;99.90;;;;;;5050791;28;20144;-79
2023/09/27 05:57:42;;;;;;;8.18;3.42;;;11.30;99.90;;;;;;5042128;28;20057;-79
2023/09/27 06:00:21;;;;;;;8.88;2.92;;;11.30;99.90;;;;;;5052640;28;20049;-79
2023/09/27 06:02:49;;;;;;;4.40;2.70;;;11.30;99.90;;;;;;5051815;28;20053;-79
2023/09/27 06:05:16;;;;;;;4.60;3.00;;;11.30;99.90;;;;;;5052169;28;20061;-79
2023/09/27 06:07:43;;;;;;;5.68;2.65;;;11.30;99.90;;;;;;5043119;28;20528;-79
2023/09/27 06:10:10;;;;;;;5.10;3.10;;;11.30;99.90;;;;;;5049762;28;20106;-79
2023/09/27 06:12:37;;;;;;;4.15;2.95;;;11.40;99.90;;;;;;5045734;28;20049;-79
2023/09/27 06:15:04;;;;;;;6.97;2.65;;;11.40;99.90;;;;;;5042427;28;20493;-79
2023/09/27 06:17:31;;;;;;;5.65;2.88;;;11.40;99.90;;;;;;5049454;28;20083;-79
2023/09/27 06:19:57;;;;;;;8.18;2.65;;;11.40;99.90;;;;;;5051098;28;20485;-79
2023/09/27 06:22:24;;;;;;;3.58;2.63;;;11.40;99.90;;;;;;5044749;28;20056;-79
2023/09/27 06:24:51;;;;;;;5.68;2.67;;;11.50;99.90;;;;;;5048531;28;20041;-79
2023/09/27 06:27:18;;;;;;;3.65;2.63;;;11.50;99.90;;;;;;5049587;28;20040;-79
2023/09/27 06:29:46;;;;;;;5.45;2.85;;;11.50;99.90;;;;;;5055025;28;20055;-79
2023/09/27 06:32:13;;;;;;;5.13;2.97;;;11.50;99.90;;;;;;5050558;28;20055;-79
2023/09/27 06:34:40;;;;;;;4.75;2.40;;;11.60;99.90;;;;;;5041417;28;20088;-79
2023/09/27 06:37:07;;;;;;;4.35;2.75;;;11.60;99.90;;;;;;5042979;28;20050;-79
2023/09/27 06:39:34;;;;;;;4.15;2.38;;;11.60;99.90;;;;;;5047837;28;20045;-79
2023/09/27 06:42:02;;;;;;;4.25;2.83;;;11.70;99.90;;;;;;5049126;28;20053;-79
2023/09/27 06:44:28;;;;;;;6.65;3.00;;;11.70;99.90;;;;;;5046275;28;20045;-79
2023/09/27 06:46:55;;;;;;;5.65;2.47;;;11.70;99.90;;;;;;5048697;28;20045;-79
2023/09/27 06:49:22;;;;;;;3.72;2.80;;;11.70;99.90;;;;;;5050988;28;20077;-80
2023/09/27 06:51:49;;;;;;;6.82;2.80;;;11.80;99.90;;;;;;5041911;28;20077;-79
2023/09/27 06:54:16;;;;;;;6.53;2.90;;;11.80;99.90;;;;;;5045476;28;20053;-79
2023/09/27 06:56:42;;;;;;;9.88;3.42;;;11.90;99.90;;;;;;5048726;28;20123;-80
2023/09/27 06:59:09;;;;;;;11.20;3.95;;;11.90;99.90;;;;;;5052467;28;20050;-79
2023/09/27 07:01:36;;;;;;;8.15;3.72;;;11.90;99.90;;;;;;5047382;28;20416;-80
2023/09/27 07:04:03;;;;;;;7.72;3.42;;;11.90;99.90;;;;;;5047536;28;20053;-79
2023/09/27 07:06:30;;;;;;;6.97;3.05;;;12.00;99.90;;;;;;5043778;28;20062;-80
2023/09/27 07:08:57;;;;;;;7.43;3.83;;;12.00;99.90;;;;;;5048524;28;20128;-79
2023/09/27 07:11:25;;;;;;;4.65;3.10;;;12.00;99.90;;;;;;5053508;28;20053;-80
2023/09/27 07:13:52;;;;;;;4.05;2.33;;;12.10;99.90;;;;;;5052345;28;20108;-79
2023/09/27 07:16:26;;;;;;;6.82;3.53;;;12.10;99.90;;;;;;5046749;28;20056;-80
2023/09/27 07:18:55;;;;;;;4.72;2.92;;;12.20;99.90;;;;;;5048481;28;20049;-80
2023/09/27 07:21:24;;;;;;;4.68;2.50;;;12.20;99.90;;;;;;5025843;28;20559;-79
2023/09/27 07:23:52;;;;;;;8.48;3.45;;;12.30;99.90;;;;;;5049466;28;20049;-79
2023/09/27 07:26:20;;;;;;;4.72;3.03;;;12.30;99.90;;;;;;5052605;28;20049;-79
2023/09/27 07:28:47;;;;;;;4.65;2.85;;;12.30;99.90;;;;;;5053060;28;20079;-79
2023/09/27 07:31:17;;;;;;;5.47;3.13;;;12.40;99.90;;;;;;5046137;28;20506;-80
2023/09/27 07:33:49;;;;;;;7.95;2.85;;;12.40;99.90;;;;;;5052072;28;20052;-80
2023/09/27 07:36:17;;;;;;;8.00;2.97;;;12.50;99.90;;;;;;5044979;28;20076;-80
2023/09/27 07:38:44;;;;;;;4.80;2.42;;;12.50;99.90;;;;;;5049862;28;20048;-79
2023/09/27 07:41:10;;;;;;;10.27;3.20;;;12.60;99.90;;;;;;5051155;28;20045;-79
2023/09/27 07:43:38;;;;;;;6.00;3.00;;;12.60;99.90;;;;;;5053354;28;20495;-79
2023/09/27 07:46:06;;;;;;;7.82;2.40;;;12.70;99.90;;;;;;5043612;28;20084;-79
2023/09/27 07:48:39;;;;;;;5.60;2.80;;;12.80;99.90;;;;;;5031230;28;20503;-79
2023/09/27 07:51:12;;;;;;;4.50;2.53;;;12.80;99.90;;;;;;5041659;28;20064;-79
2023/09/27 07:53:40;;;;;;;5.35;2.38;;;12.90;99.90;;;;;;5052698;28;20044;-79
2023/09/27 07:56:09;;;;;;;7.72;2.90;;;13.00;99.90;;;;;;5048695;28;20420;-79
2023/09/27 07:58:37;;;;;;;6.35;2.67;;;13.00;99.90;;;;;;5051494;28;20075;-79
2023/09/27 08:01:04;;;;;;;6.57;2.85;;;13.10;99.90;;;;;;5042473;28;20667;-79
2023/09/27 08:03:31;;;;;;;7.93;2.67;;;13.20;99.90;;;;;;5047580;28;20468;-81
2023/09/27 08:05:59;;;;;;;5.93;3.40;;;13.20;99.90;;;;;;5040771;28;20096;-79
2023/09/27 08:08:26;;;;;;;5.93;3.22;;;13.30;99.90;;;;;;5052770;28;20072;-79
2023/09/27 08:10:53;;;;;;;7.53;3.10;;;13.40;99.90;;;;;;5048870;28;20045;-79
2023/09/27 08:13:20;;;;;;;5.68;3.10;;;13.40;99.90;;;;;;5049527;28;20059;-79
2023/09/27 08:15:51;;;;;;;5.32;2.88;;;13.40;99.90;;;;;;5042603;28;20053;-79
2023/09/27 08:18:18;;;;;;;3.15;2.30;;;13.50;99.90;;;;;;5047062;28;20083;-79
2023/09/27 08:20:45;;;;;;;7.18;2.55;;;13.50;99.90;;;;;;5042974;28;20509;-79
2023/09/27 08:23:12;;;;;;;11.43;2.80;;;13.60;99.90;;;;;;5053701;28;20050;-79
2023/09/27 08:25:39;;;;;;;4.88;2.60;;;13.70;99.90;;;;;;5050491;28;20048;-79
2023/09/27 08:28:06;;;;;;;4.90;2.97;;;13.70;99.90;;;;;;5049495;28;20136;-79
2023/09/27 08:30:33;;;;;;;4.03;2.40;;;13.80;99.90;;;;;;5044080;28;20116;-79
2023/09/27 08:33:00;;;;;;;8.82;2.72;;;13.80;99.90;;;;;;5047833;28;20132;-79
2023/09/27 08:35:28;;;;;;;6.93;2.70;;;13.90;99.90;;;;;;5044164;28;20076;-80
2023/09/27 08:37:55;;;;;;;4.32;2.30;;;13.90;99.90;;;;;;5035646;28;20052;-79
2023/09/27 08:40:21;;;;;;;4.28;2.22;;;14.00;99.90;;;;;;5048562;28;20509;-80
2023/09/27 08:42:57;;;;;;;4.03;2.63;;;14.00;99.90;;;;;;5049979;28;20045;-79
2023/09/27 08:45:24;;;;;;;5.20;2.38;;;14.10;99.90;;;;;;5044003;28;20049;-79
2023/09/27 08:47:51;;;;;;;5.97;2.42;;;14.10;99.90;;;;;;5045885;28;20045;-79
2023/09/27 08:50:19;;;;;;;4.20;2.70;;;14.10;99.90;;;;;;5030949;28;20053;-79
2023/09/27 08:52:48;;;;;;;6.18;2.10;;;14.20;99.90;;;;;;5052992;28;20557;-79
2023/09/27 08:55:18;;;;;;;3.40;2.20;;;14.30;99.90;;;;;;5046002;28;20136;-80
2023/09/27 08:57:47;;;;;;;5.55;2.88;;;14.30;99.90;;;;;;5049240;28;20045;-80
2023/09/27 09:00:26;;;;;;;4.65;2.92;;;14.40;99.90;;;;;;5041446;28;20328;-80
2023/09/27 09:02:58;;;;;;;4.15;2.50;;;14.40;99.90;;;;;;5046109;28;20052;-79
2023/09/27 09:05:28;;;;;;;4.78;2.95;;;14.50;99.90;;;;;;5052609;28;20420;-79
2023/09/27 09:07:57;;;;;;;5.13;3.08;;;14.50;99.90;;;;;;5051575;28;20063;-79
2023/09/27 09:10:24;;;;;;;6.07;2.33;;;14.60;99.90;;;;;;5050252;28;20074;-79
2023/09/27 09:12:52;;;;;;;4.03;2.75;;;14.60;99.90;;;;;;5052233;28;20057;-81
2023/09/27 09:15:40;;;;;;;4.90;2.38;;;14.70;99.90;;;;;;5044755;28;20601;-80
2023/09/27 09:18:14;;;;;;;6.65;2.60;;;14.80;99.90;;;;;;5038252;28;20052;-80
2023/09/27 09:20:51;;;;;;;5.82;2.85;;;14.90;99.90;;;;;;5056860;28;20045;-79
2023/09/27 09:23:33;;;;;;;5.00;2.90;;;15.00;99.90;;;;;;5050443;28;20777;-80
2023/09/27 09:26:02;;;;;;;5.60;3.00;;;15.10;99.90;;;;;;5032825;28;20099;-79
2023/09/27 09:28:29;;;;;;;7.25;2.83;;;15.20;99.90;;;;;;5051108;28;20398;-80
2023/09/27 09:30:56;;;;;;;6.57;2.53;;;15.40;99.90;;;;;;5040973;28;20049;-79
2023/09/27 09:33:28;;;;;;;7.53;2.42;;;15.40;99.90;;;;;;5035235;28;20053;-79
2023/09/27 09:35:56;;;;;;;3.80;2.22;;;15.50;99.90;;;;;;5054149;28;20051;-80
2023/09/27 09:38:29;;;;;;;3.33;2.42;;;15.60;99.90;;;;;;5052352;28;20049;-80
2023/09/27 09:40:57;;;;;;;4.35;2.78;;;15.70;99.90;;;;;;5048739;28;20072;-79
2023/09/27 09:43:38;;;;;;;5.22;2.60;;;15.80;99.90;;;;;;5050563;28;20052;-79
2023/09/27 09:46:06;;;;;;;11.38;3.25;;;15.80;99.90;;;;;;5045169;28;20052;-80
2023/09/27 09:48:35;;;;;;;7.13;3.03;;;15.80;99.90;;;;;;5057291;28;20136;-80
2023/09/27 09:51:06;;;;;;;3.22;2.17;;;15.80;99.90;;;;;;5039262;28;20500;-81
2023/09/27 09:53:39;;;;;;;;;;;15.90;99.90;;;;;;5057468;28;20136;-82
2023/09/27 09:56:10;;;;;;;6.10;2.97;;;15.90;99.90;;;;;;5049787;28;19945;-79
2023/09/27 09:58:46;;;;;;;8.70;2.90;;;16.00;99.90;;;;;;5048421;28;20120;-80
2023/09/27 10:01:21;;;;;;;10.10;3.03;;;16.00;99.90;;;;;;5047210;28;20037;-80
2023/09/27 10:03:51;;;;;;;5.03;3.22;;;16.10;99.90;;;;;;5051277;28;20516;-79
2023/09/27 10:06:20;;;;;;;3.40;2.28;;;16.10;99.90;;;;;;5051825;28;20045;-80
2023/09/27 10:09:13;;;;;;;5.10;2.45;;;16.20;99.90;;;;;;5047730;28;20057;-79
2023/09/27 10:11:42;;;;;;;4.47;2.25;;;16.20;99.90;;;;;;5048438;28;20040;-80
2023/09/27 10:14:10;;;;;;;5.75;2.53;;;16.30;99.90;;;;;;5044879;28;20053;-80
2023/09/27 10:16:37;;;;;;;3.70;2.53;;;16.30;99.90;;;;;;5051353;28;20508;-78
2023/09/27 10:19:05;;;;;;;4.63;2.63;;;16.40;99.90;;;;;;5045800;28;20541;-79
2023/09/27 10:21:32;;;;;;;7.70;2.85;;;16.40;99.90;;;;;;5048515;28;21425;-81
2023/09/27 10:24:01;;;;;;;9.27;2.40;;;16.50;99.90;;;;;;5045365;28;20041;-79
2023/09/27 10:26:28;;;;;;;10.05;3.25;;;16.50;99.90;;;;;;5051245;28;20462;-79
2023/09/27 10:29:03;;;;;;;5.85;3.08;;;16.60;99.90;;;;;;5040600;28;20049;-79
2023/09/27 10:31:56;;;;;;;4.47;2.75;;;16.70;99.90;;;;;;5052978;28;20042;-80
2023/09/27 10:34:29;;;;;;;5.80;3.20;;;16.70;99.90;;;;;;5049653;28;20076;-79
2023/09/27 10:37:00;;;;;;;6.65;2.30;;;16.80;99.90;;;;;;5047038;28;20041;-79
2023/09/27 10:39:30;;;;;;;4.20;2.65;;;16.80;99.90;;;;;;5024628;28;20041;-79
2023/09/27 10:41:56;;;;;;;7.38;2.00;;;16.90;99.90;;;;;;5047065;28;20045;-79
2023/09/27 10:44:28;;;;;;;6.53;2.67;;;17.00;99.90;;;;;;5046733;28;20048;-77
2023/09/27 10:46:56;;;;;;;12.38;3.20;;;17.10;99.90;;;;;;5052607;28;20118;-79
2023/09/27 10:49:27;;;;;;;4.82;2.65;;;17.10;99.90;;;;;;5047907;28;20520;-76
2023/09/27 10:51:54;;;;;;;9.18;2.42;;;17.20;99.90;;;;;;5043568;28;20041;-76
2023/09/27 10:54:33;;;;;;;9.57;2.65;;;17.20;99.90;;;;;;5041215;28;20064;-76
2023/09/27 10:57:02;;;;;;;5.35;2.67;;;17.30;99.90;;;;;;5040946;28;20045;-76
2023/09/27 10:59:29;;;;;;;14.88;2.75;;;17.30;99.90;;;;;;5046620;28;20451;-76
2023/09/27 11:01:58;;;;;;;6.35;2.50;;;17.40;99.90;;;;;;5050957;28;20562;-76
2023/09/27 11:04:26;;;;;;;6.75;3.15;;;17.50;99.90;;;;;;5042884;28;20135;-76
2023/09/27 11:06:53;;;;;;;7.50;2.70;;;17.50;99.90;;;;;;5044119;28;20522;-76
2023/09/27 11:09:20;;;;;;;6.95;2.00;;;17.60;99.90;;;;;;5037083;28;20211;-76
2023/09/27 11:11:48;;;;;;;6.53;2.25;;;17.60;99.90;;;;;;5046686;28;20052;-76
2023/09/27 11:14:31;;;;;;;8.63;2.40;;;17.70;99.90;;;;;;5047666;28;20128;-76
2023/09/27 11:17:21;;;;;;;3.53;2.33;;;17.80;99.90;;;;;;5043022;28;20067;-76
2023/09/27 11:19:52;;;;;;;15.77;5.72;;;17.90;99.90;;;;;;5045668;28;20438;-76
2023/09/27 11:22:27;;;;;;;8.75;3.20;;;17.90;99.90;;;;;;5042315;28;20053;-76
2023/09/27 11:24:54;;;;;;;7.00;2.40;;;17.90;99.90;;;;;;5039546;28;20098;-76
2023/09/27 11:27:21;;;;;;;6.72;2.30;;;18.00;99.90;;;;;;5043974;28;20057;-76
2023/09/27 11:29:54;;;;;;;3.30;2.03;;;18.00;99.90;;;;;;5051497;28;20056;-76
2023/09/27 11:32:21;;;;;;;5.78;2.83;;;18.10;99.90;;;;;;5042073;28;20045;-76
2023/09/27 11:34:58;;;;;;;5.00;3.00;;;18.20;99.90;;;;;;5044291;28;20049;-76
2023/09/27 11:37:26;;;;;;;5.13;2.28;;;18.30;99.90;;;;;;5041348;28;20042;-76
2023/09/27 11:39:54;;;;;;;9.98;3.45;;;18.30;99.90;;;;;;5038417;28;20063;-76
2023/09/27 11:42:24;;;;;;;5.45;2.33;;;18.40;99.90;;;;;;5049569;28;20048;-76
2023/09/27 11:45:12;;;;;;;8.20;2.65;;;18.40;99.90;;;;;;5050788;28;20049;-76
2023/09/27 11:47:50;;;;;;;5.43;2.05;;;18.50;99.90;;;;;;5043440;28;20091;-76
2023/09/27 11:50:18;;;;;;;4.20;2.00;;;18.60;99.90;;;;;;5042197;28;20049;-76
2023/09/27 11:52:46;;;;;;;4.75;2.13;;;18.70;99.90;;;;;;5041155;28;20080;-76
2023/09/27 11:55:14;;;;;;;5.72;2.65;;;18.70;99.90;;;;;;5040116;28;20400;-76
2023/09/27 11:57:41;;;;;;;3.72;2.22;;;18.90;99.90;;;;;;5049321;28;20107;-76
2023/09/27 12:00:09;;;;;;;5.82;2.70;;;18.90;99.90;;;;;;5047471;28;20052;-77
2023/09/27 12:02:35;;;;;;;5.40;2.60;;;19.10;99.90;;;;;;5041658;28;20504;-76
2023/09/27 12:05:18;;;;;;;6.85;2.22;;;19.10;99.90;;;;;;5040441;28;20096;-76
2023/09/27 12:07:45;;;;;;;4.57;2.00;;;19.20;99.90;;;;;;5022213;28;20076;-76
2023/09/27 12:10:12;;;;;;;3.28;1.80;;;19.20;99.90;;;;;;5039215;28;20142;-76
2023/09/27 12:12:39;;;;;;;4.95;1.83;;;19.30;99.90;;;;;;5047417;28;20048;-76
2023/09/27 12:15:07;;;;;;;3.88;2.08;;;19.40;99.90;;;;;;5046721;28;20150;-76
2023/09/27 12:17:33;;;;;;;3.35;1.90;;;19.50;99.90;;;;;;5039549;28;20099;-76
2023/09/27 12:20:00;;;;;;;7.18;2.40;;;19.50;99.90;;;;;;5041175;28;20047;-76
2023/09/27 12:22:29;;;;;;;7.45;1.90;;;19.50;99.90;;;;;;5039608;28;20049;-76
2023/09/27 12:24:55;;;;;;;3.45;2.33;;;19.60;99.90;;;;;;5046245;28;20041;-76
2023/09/27 12:27:22;;;;;;;5.13;2.15;;;19.60;99.90;;;;;;5027114;28;20187;-76
2023/09/27 12:29:49;;;;;;;3.85;1.88;;;19.70;99.90;;;;;;5030567;28;20115;-76
2023/09/27 12:32:15;;;;;;;7.40;1.95;;;19.90;99.90;;;;;;5038486;28;20100;-76
2023/09/27 12:34:42;;;;;;;4.85;2.08;;;19.90;99.90;;;;;;5042908;28;20045;-76
2023/09/27 12:37:09;;;;;;;8.32;2.78;;;20.00;99.90;;;;;;5040217;28;20042;-76
2023/09/27 12:39:37;;;;;;;4.95;1.90;;;20.00;99.90;;;;;;5047299;28;20134;-76
2023/09/27 12:42:04;;;;;;;5.32;2.05;;;20.00;99.90;;;;;;5047103;28;20118;-76
2023/09/27 12:44:32;;;;;;;4.38;1.88;;;20.10;99.90;;;;;;5046435;28;20041;-76
2023/09/27 12:46:58;;;;;;;2.72;1.75;;;20.10;99.90;;;;;;5046422;28;20416;-76
2023/09/27 12:49:25;;;;;;;7.75;2.22;;;20.10;99.90;;;;;;5044142;28;20045;-76
2023/09/27 12:51:52;;;;;;;4.72;1.92;;;20.10;99.90;;;;;;5045048;28;20525;-76
2023/09/27 12:54:21;;;;;;;4.07;2.17;;;20.10;99.90;;;;;;5050603;28;20049;-75